Davenport, Iowa
Current Conditions -  °F | °C
As of 12:52 AM on Wednesday 26 Nov 2014 (Local Time) from KDVN Reporting Station
Clear Clear  
Wind Chill: -14°   Ceiling: Unl
Heat Index: -9°   Visibility: 7mi
Dew Point: -11°   Wind: 6mph
Humidity: 84%   Direction: 120°ESE
Pressure: 30.12"   Gusts: NA
Location:  41.54°N, 90.58°W
Report Text: KDVN 260652Z AUTO 12005KT 7SM CLR M09/M11 A3012 RMK AO2 SLP211 I1000 T10891111
Loading
Personal Weather Stations






























Interactive Weather Map New forecast layout! Learn more

10-Day Weather Forecast

Advertisements
Track Severe Weather on mobile